Main page
METAR-TAF:

METAR-TAF

Airports :

Kemi-Tornio Airport

Kemi, Finland

latitude: 65-47N, longitude: 024-35E, elevation: 15 m

Current weather observation

The report was made 11 minutes ago, at 05:20 UTC
Wind 11 kt from the South/Southwest
Temperature 2°C
Humidity 87%
Pressure 1018 hPa
Visibility 10 km or more
no clouds below 1500 m and no cumulonimbus

METAR: EFKE 210520Z AUTO 21011KT CAVOK 02/00 Q1018

Time: 08:31 (05:31 UTC)

Forecast

The report was made 9 hours and 11 minutes ago, at 20:20 UTC
Forecast valid from 20 at 21 UTC to 20 at 24 UTC
Wind 6 kt from the South/Southeast
Visibility 10 km or more
no clouds below 1500 m and no cumulonimbus

TAF: EFKE 202020Z 2021/2024 16006KT CAVOK

Weather observations and forecasts of more than 4000 airports (METAR and TAF reports).

The available stations are represented by yellow and red dots on the map.

Hover mouse over dot to see the name of the station.

Then click to see weather observations and forecasts.

To change the map : click on the green buttons with a black cross to zoom in, on the green button with a dash to zoom out, or on the green arrows for adjacent maps.


METAR-TAF: